createdAt,value
2023-04-21T00:00:10.184Z,9.45
2023-04-21T00:02:41.726Z,13.02
2023-04-21T00:05:12.471Z,11.10
2023-04-21T00:07:41.644Z,11.38
2023-04-21T00:10:10.819Z,9.73
2023-04-21T00:12:39.463Z,10.25
2023-04-21T00:15:10.366Z,8.50
2023-04-21T00:17:39.150Z,11.35
2023-04-21T00:20:09.848Z,13.30
2023-04-21T00:22:37.925Z,8.23
2023-04-21T00:25:07.039Z,12.73
2023-04-21T00:27:35.329Z,13.80
2023-04-21T00:30:03.427Z,8.50
2023-04-21T00:32:32.861Z,10.25
2023-04-21T00:35:01.635Z,8.25
2023-04-21T00:37:30.010Z,15.32
2023-04-21T00:39:58.604Z,9.45
2023-04-21T00:42:27.003Z,9.23
2023-04-21T00:44:55.967Z,10.80
2023-04-21T00:47:25.496Z,10.98
2023-04-21T00:49:55.159Z,10.30
2023-04-21T00:52:23.429Z,11.25
2023-04-21T00:54:51.832Z,8.32
2023-04-21T00:57:20.318Z,10.18
2023-04-21T00:59:49.824Z,10.57
2023-04-21T01:02:19.972Z,8.38
2023-04-21T01:04:49.387Z,11.98
2023-04-21T01:07:19.001Z,7.43
2023-04-21T01:09:46.977Z,10.68
2023-04-21T01:12:15.346Z,14.93
2023-04-21T01:14:43.343Z,8.60
2023-04-21T01:17:11.936Z,9.23
2023-04-21T01:19:43.343Z,10.75
2023-04-21T01:22:15.309Z,10.20
2023-04-21T01:24:44.928Z,11.15
2023-04-21T01:27:15.063Z,9.27
2023-04-21T01:29:44.644Z,11.40
2023-04-21T01:32:16.624Z,10.65
2023-04-21T01:34:46.285Z,10.35
2023-04-21T01:37:18.619Z,7.82
2023-04-21T01:39:48.548Z,8.38
2023-04-21T01:42:16.646Z,7.37
2023-04-21T01:44:47.000Z,7.80
2023-04-21T01:47:18.532Z,8.68
2023-04-21T01:49:47.020Z,8.18
2023-04-21T01:52:16.932Z,8.63
2023-04-21T01:54:45.004Z,8.90
2023-04-21T01:57:13.262Z,10.55
2023-04-21T01:59:41.567Z,10.55
2023-04-21T02:02:10.062Z,12.32
2023-04-21T02:04:38.563Z,5.87
2023-04-21T02:07:07.308Z,12.13
2023-04-21T02:09:36.886Z,16.45
2023-04-21T02:12:05.704Z,5.97
2023-04-21T02:14:33.706Z,6.72
2023-04-21T02:17:03.615Z,6.12
2023-04-21T02:19:32.357Z,9.82
2023-04-21T02:22:00.517Z,8.43
2023-04-21T02:24:28.703Z,8.27
2023-04-21T02:26:58.642Z,11.52
2023-04-21T02:29:29.244Z,6.97
2023-04-21T02:32:05.173Z,7.25
2023-04-21T02:34:33.457Z,10.13
2023-04-21T02:37:02.416Z,9.98
2023-04-21T02:39:30.735Z,11.93
2023-04-21T02:42:00.541Z,5.95
2023-04-21T02:44:28.803Z,12.95
2023-04-21T02:46:56.752Z,12.75
2023-04-21T02:49:24.820Z,9.85
2023-04-21T02:51:52.976Z,9.52
2023-04-21T02:54:20.965Z,12.35
2023-04-21T02:56:49.220Z,12.07
2023-04-21T02:59:19.118Z,8.75
2023-04-21T03:01:49.181Z,10.50
2023-04-21T03:04:17.496Z,8.90
2023-04-21T03:06:45.640Z,10.98
2023-04-21T03:09:13.587Z,8.77
2023-04-21T03:11:41.830Z,9.95
2023-04-21T03:14:09.737Z,7.43
2023-04-21T03:16:39.052Z,9.90
2023-04-21T03:19:07.712Z,11.18
2023-04-21T03:21:37.976Z,6.85
2023-04-21T03:24:07.057Z,10.55
2023-04-21T03:26:35.507Z,6.80
2023-04-21T03:29:03.767Z,11.38
2023-04-21T03:31:31.800Z,6.80
2023-04-21T03:34:01.436Z,9.10
2023-04-21T03:36:29.522Z,7.93
2023-04-21T03:39:05.910Z,13.52
2023-04-21T03:41:41.336Z,6.50
2023-04-21T03:44:10.752Z,8.45
2023-04-21T03:46:40.192Z,7.80
2023-04-21T03:49:09.703Z,10.55
2023-04-21T03:51:37.652Z,6.87
2023-04-21T03:54:05.657Z,6.05
2023-04-21T03:56:33.851Z,9.23
2023-04-21T03:59:01.810Z,9.63
2023-04-21T04:01:29.753Z,7.12
2023-04-21T04:03:58.147Z,5.45
2023-04-21T04:06:28.446Z,8.48
2023-04-21T04:08:56.406Z,5.32
2023-04-21T04:11:24.601Z,7.68
2023-04-21T04:13:52.666Z,10.32
2023-04-21T04:16:20.774Z,10.82
2023-04-21T04:18:50.981Z,11.48
2023-04-21T04:21:18.938Z,9.30
2023-04-21T04:23:48.278Z,10.60
2023-04-21T04:26:16.635Z,11.00
2023-04-21T04:28:44.589Z,10.40
2023-04-21T04:31:13.703Z,11.40
2023-04-21T04:33:43.095Z,6.90
2023-04-21T04:36:11.883Z,9.07
2023-04-21T04:38:40.314Z,8.63
2023-04-21T04:41:09.885Z,8.45
2023-04-21T04:43:39.119Z,11.38
2023-04-21T04:46:09.089Z,8.95
2023-04-21T04:48:37.506Z,7.75
2023-04-21T04:51:05.749Z,7.18
2023-04-21T04:53:33.683Z,10.35
2023-04-21T04:56:02.152Z,7.10
2023-04-21T04:58:31.464Z,8.32
2023-04-21T05:00:59.508Z,12.32
2023-04-21T05:03:27.932Z,8.02
2023-04-21T05:05:57.585Z,13.80
2023-04-21T05:08:25.732Z,6.60
2023-04-21T05:10:53.971Z,11.25
2023-04-21T05:13:21.956Z,9.48
2023-04-21T05:15:51.200Z,13.15
2023-04-21T05:18:19.428Z,7.78
2023-04-21T05:20:47.322Z,8.00
2023-04-21T05:23:15.302Z,9.20
2023-04-21T05:25:43.405Z,7.65
2023-04-21T05:28:11.545Z,8.35
2023-04-21T05:30:39.436Z,8.02
2023-04-21T05:33:09.407Z,10.35
2023-04-21T05:35:38.136Z,8.73
2023-04-21T05:38:07.115Z,10.68
2023-04-21T05:40:35.316Z,12.35
2023-04-21T05:43:03.367Z,7.82
2023-04-21T05:45:31.354Z,7.45
2023-04-21T05:47:59.537Z,5.90
2023-04-21T05:50:33.982Z,11.75
2023-04-21T05:53:03.155Z,12.98
2023-04-21T05:55:31.257Z,15.73
2023-04-21T05:57:59.230Z,11.20
2023-04-21T06:00:29.208Z,9.68
2023-04-21T06:02:58.099Z,11.00
2023-04-21T06:05:26.265Z,9.45
2023-04-21T06:07:55.650Z,6.30
2023-04-21T06:10:23.982Z,11.55
2023-04-21T06:12:51.902Z,11.82
2023-04-21T06:15:19.979Z,8.63
2023-04-21T06:17:48.161Z,9.57
2023-04-21T06:20:17.801Z,7.15
2023-04-21T06:22:45.763Z,11.90
2023-04-21T06:25:15.416Z,11.38
2023-04-21T06:27:45.555Z,7.78
2023-04-21T06:30:14.798Z,10.60
2023-04-21T06:32:42.956Z,8.82
2023-04-21T06:35:11.002Z,11.98
2023-04-21T06:37:39.289Z,9.88
2023-04-21T06:40:08.202Z,9.88
2023-04-21T06:42:37.580Z,7.60
2023-04-21T06:45:07.131Z,6.60
2023-04-21T06:47:35.136Z,9.85
2023-04-21T06:50:03.114Z,11.98
2023-04-21T06:52:31.476Z,10.95
2023-04-21T06:54:59.462Z,8.45
2023-04-21T06:57:27.472Z,9.32
2023-04-21T06:59:57.014Z,13.90
2023-04-21T07:02:25.069Z,7.55
2023-04-21T07:04:53.163Z,9.90
2023-04-21T07:07:21.425Z,11.48
2023-04-21T07:09:49.415Z,12.93
2023-04-21T07:12:17.514Z,10.32
2023-04-21T07:14:45.780Z,10.93
2023-04-21T07:17:15.292Z,10.55
2023-04-21T07:19:43.350Z,6.62
2023-04-21T07:22:11.633Z,8.85
2023-04-21T07:24:39.646Z,8.88
2023-04-21T07:27:07.642Z,10.73
2023-04-21T07:29:37.277Z,9.10
2023-04-21T07:32:05.539Z,9.80
2023-04-21T07:34:34.761Z,10.95
2023-04-21T07:37:03.055Z,9.73
2023-04-21T07:39:31.036Z,7.55
2023-04-21T07:42:01.541Z,11.75
2023-04-21T07:44:30.082Z,10.65
2023-04-21T07:46:58.361Z,8.98
2023-04-21T07:49:26.426Z,8.95
2023-04-21T07:51:56.036Z,7.00
2023-04-21T07:54:24.128Z,8.30
2023-04-21T07:56:52.067Z,10.60
2023-04-21T07:59:20.515Z,11.07
2023-04-21T08:01:48.643Z,7.80
2023-04-21T08:04:17.058Z,10.93
2023-04-21T08:06:45.348Z,7.85
2023-04-21T08:09:14.960Z,10.27
2023-04-21T08:11:43.303Z,9.43
2023-04-21T08:14:11.925Z,8.43
2023-04-21T08:16:40.574Z,7.82
2023-04-21T08:19:08.992Z,9.00
2023-04-21T08:21:37.566Z,7.05
2023-04-21T08:24:06.313Z,7.12
2023-04-21T08:26:36.151Z,6.57
2023-04-21T08:29:07.294Z,11.20
2023-04-21T08:31:36.372Z,9.23
2023-04-21T08:34:04.618Z,10.68
2023-04-21T08:36:32.710Z,9.43
2023-04-21T08:39:01.600Z,9.65
2023-04-21T08:41:29.651Z,8.40
2023-04-21T08:43:59.131Z,4.03
2023-04-21T08:46:29.131Z,8.55
2023-04-21T08:48:59.634Z,8.07
2023-04-21T08:51:30.192Z,9.13
2023-04-21T08:53:58.590Z,10.68
2023-04-21T08:56:27.246Z,6.82
2023-04-21T08:58:55.606Z,7.62
2023-04-21T09:01:25.212Z,5.95
2023-04-21T09:03:53.560Z,8.65
2023-04-21T09:06:43.599Z,4.62
2023-04-21T09:09:11.787Z,7.15
2023-04-21T09:11:42.939Z,9.65
2023-04-21T09:14:12.526Z,8.70
2023-04-21T09:16:44.571Z,7.53
2023-04-21T09:19:16.261Z,9.50
2023-04-21T09:21:45.528Z,10.20
2023-04-21T09:24:14.113Z,4.62
2023-04-21T09:26:43.836Z,5.00
2023-04-21T09:29:12.659Z,8.73
2023-04-21T09:31:42.348Z,4.12
2023-04-21T09:34:19.749Z,7.53
2023-04-21T09:36:48.554Z,5.72
2023-04-21T09:41:48.980Z,3.67
2023-04-21T09:44:18.099Z,6.45
2023-04-21T09:46:50.728Z,4.28
2023-04-21T09:49:19.666Z,3.75
2023-04-21T09:56:57.721Z,5.25
2023-04-21T09:59:30.366Z,7.95
2023-04-21T10:02:01.448Z,7.43
2023-04-21T10:04:33.213Z,4.78
2023-04-21T10:07:02.116Z,4.68
2023-04-21T10:09:41.314Z,5.60
2023-04-21T10:12:13.677Z,3.97
2023-04-21T10:14:42.236Z,5.18
2023-04-21T10:17:12.098Z,4.28
2023-04-21T10:19:50.198Z,5.85
2023-04-21T10:22:28.778Z,6.47
2023-04-21T10:24:57.214Z,4.93
2023-04-21T10:27:37.058Z,5.97
2023-04-21T10:30:20.399Z,10.07
2023-04-21T10:33:02.879Z,8.55
2023-04-21T10:36:02.801Z,10.52
2023-04-21T10:38:35.199Z,6.35
2023-04-21T10:41:27.407Z,6.15
2023-04-21T10:43:59.013Z,7.25
2023-04-21T10:46:34.908Z,6.15
2023-04-21T10:49:09.109Z,6.20
2023-04-21T10:52:16.252Z,5.22
2023-04-21T10:55:05.240Z,4.32
2023-04-21T10:57:35.523Z,2.75
2023-04-21T11:00:07.189Z,3.72
2023-04-21T11:02:39.083Z,5.62
2023-04-21T11:05:11.555Z,5.15
2023-04-21T11:07:39.646Z,3.83
2023-04-21T11:10:10.080Z,4.12
2023-04-21T11:12:40.555Z,5.37
2023-04-21T11:15:10.978Z,3.45
2023-04-21T11:17:43.187Z,4.45
2023-04-21T11:20:12.796Z,3.97
2023-04-21T11:22:41.073Z,5.05
2023-04-21T11:25:18.585Z,4.50
2023-04-21T11:27:55.609Z,4.78
2023-04-21T11:30:31.699Z,5.05
2023-04-21T11:33:00.023Z,5.68
2023-04-21T11:35:29.515Z,5.68
2023-04-21T11:37:57.807Z,6.55
2023-04-21T11:40:26.179Z,6.12
2023-04-21T11:42:54.467Z,5.00
2023-04-21T11:45:22.884Z,2.85
2023-04-21T11:47:51.520Z,4.10
2023-04-21T11:50:33.259Z,4.45
2023-04-21T11:53:03.490Z,3.22
2023-04-21T11:55:31.454Z,3.92
2023-04-21T11:57:59.505Z,4.82
2023-04-21T12:00:31.829Z,2.45
2023-04-21T12:03:00.256Z,3.80
2023-04-21T12:05:37.504Z,5.97
2023-04-21T12:08:06.448Z,5.82
2023-04-21T12:10:34.822Z,4.05
2023-04-21T12:13:03.062Z,4.30
2023-04-21T12:15:31.908Z,2.87
2023-04-21T12:17:59.982Z,3.80
2023-04-21T12:20:30.835Z,5.60
2023-04-21T12:23:01.134Z,2.45
2023-04-21T12:25:29.572Z,3.85
2023-04-21T12:27:59.697Z,3.37
2023-04-21T12:30:28.194Z,2.17
2023-04-21T12:32:56.336Z,4.03
2023-04-21T12:35:24.917Z,7.87
2023-04-21T12:37:53.359Z,5.03
2023-04-21T12:40:23.126Z,5.80
2023-04-21T12:42:51.347Z,6.20
2023-04-21T12:45:19.801Z,4.72
2023-04-21T12:47:47.976Z,6.60
2023-04-21T12:50:16.953Z,5.82
2023-04-21T12:52:45.796Z,5.80
2023-04-21T12:55:14.438Z,8.63
2023-04-21T12:57:43.974Z,8.23
2023-04-21T13:00:14.888Z,3.67
2023-04-21T13:02:43.353Z,3.28
2023-04-21T13:05:12.836Z,4.00
2023-04-21T13:07:41.567Z,3.87
2023-04-21T13:10:10.427Z,7.35
2023-04-21T13:12:38.483Z,6.05
2023-04-21T13:15:09.695Z,3.20
2023-04-21T13:17:37.711Z,4.70
2023-04-21T13:20:07.267Z,2.33
2023-04-21T13:22:36.358Z,3.72
2023-04-21T13:25:04.716Z,3.03
2023-04-21T13:27:33.413Z,4.05
2023-04-21T13:30:01.888Z,5.15
2023-04-21T13:32:31.265Z,3.90
2023-04-21T13:34:59.226Z,5.43
2023-04-21T13:37:27.638Z,2.28
2023-04-21T13:39:55.809Z,7.70
2023-04-21T13:42:23.809Z,3.35
2023-04-21T13:44:52.151Z,3.80
2023-04-21T13:47:20.387Z,10.00
2023-04-21T13:49:50.121Z,5.35
2023-04-21T13:52:18.522Z,3.80
2023-04-21T13:54:50.704Z,4.20
2023-04-21T13:57:19.907Z,2.95
2023-04-21T13:59:48.578Z,6.75
2023-04-21T14:02:16.921Z,4.22
2023-04-21T14:04:45.478Z,3.92
2023-04-21T14:07:17.978Z,4.60
2023-04-21T14:09:46.423Z,2.60
2023-04-21T14:12:14.377Z,8.98
2023-04-21T14:14:42.409Z,4.93
2023-04-21T14:17:10.812Z,4.15
2023-04-21T14:19:38.864Z,8.18
2023-04-21T14:22:06.925Z,4.30
2023-04-21T14:24:36.426Z,2.50
2023-04-21T14:27:04.599Z,5.43
2023-04-21T14:29:32.911Z,2.97
2023-04-21T14:32:01.463Z,5.70
2023-04-21T14:34:29.521Z,4.22
2023-04-21T14:36:58.136Z,5.43
2023-04-21T14:39:26.457Z,6.22
2023-04-21T14:41:55.852Z,7.93
2023-04-21T14:44:23.820Z,4.57
2023-04-21T14:47:05.406Z,2.75
2023-04-21T14:49:38.188Z,4.25
2023-04-21T14:52:07.162Z,2.72
2023-04-21T14:54:35.396Z,2.10
2023-04-21T14:57:18.796Z,6.60
2023-04-21T14:59:50.527Z,5.25
2023-04-21T15:02:19.162Z,4.75
2023-04-21T15:04:47.737Z,5.70
2023-04-21T15:07:19.935Z,3.10
2023-04-21T15:09:51.373Z,4.80
2023-04-21T15:12:21.037Z,2.12
2023-04-21T15:14:49.333Z,4.10
2023-04-21T15:17:17.516Z,4.70
2023-04-21T15:19:46.004Z,3.55
2023-04-21T15:22:15.160Z,7.50
2023-04-21T15:24:43.690Z,3.22
2023-04-21T15:27:12.001Z,4.03
2023-04-21T15:29:41.395Z,3.58
2023-04-21T15:32:09.598Z,3.45
2023-04-21T15:34:37.842Z,5.28
2023-04-21T15:37:05.955Z,2.28
2023-04-21T15:39:34.307Z,4.05
2023-04-21T15:42:04.396Z,3.72
2023-04-21T15:44:33.895Z,4.97
2023-04-21T15:47:03.876Z,3.40
2023-04-21T15:49:31.976Z,2.40
2023-04-21T15:52:00.167Z,3.35
2023-04-21T15:54:28.772Z,4.22
2023-04-21T15:56:57.721Z,3.15
2023-04-21T15:59:26.357Z,3.50
2023-04-21T16:01:56.771Z,4.70
2023-04-21T16:04:26.653Z,3.10
2023-04-21T16:06:54.986Z,3.58
2023-04-21T16:09:23.743Z,2.70
2023-04-21T16:11:52.060Z,6.15
2023-04-21T16:14:20.393Z,4.03
2023-04-21T16:16:48.457Z,3.05
2023-04-21T16:19:17.383Z,2.72
2023-04-21T16:21:46.821Z,3.22
2023-04-21T16:24:14.991Z,3.75
2023-04-21T16:26:43.305Z,8.75
2023-04-21T16:29:11.706Z,5.47
2023-04-21T16:31:39.853Z,1.98
2023-04-21T16:34:08.420Z,4.35
2023-04-21T16:36:37.084Z,6.30
2023-04-21T16:39:06.701Z,2.75
2023-04-21T16:41:35.101Z,3.92
2023-04-21T16:44:03.575Z,3.45
2023-04-21T16:46:31.562Z,5.45
2023-04-21T16:49:00.024Z,10.35
2023-04-21T16:51:28.628Z,3.28
2023-04-21T16:53:56.666Z,3.50
2023-04-21T16:56:26.323Z,2.83
2023-04-21T16:58:54.500Z,7.35
2023-04-21T17:01:22.507Z,4.72
2023-04-21T17:03:50.893Z,1.83
2023-04-21T17:06:21.123Z,3.40
2023-04-21T17:08:49.570Z,6.55
2023-04-21T17:11:17.929Z,6.62
2023-04-21T17:13:47.333Z,6.50
2023-04-21T17:16:15.835Z,3.33
2023-04-21T17:18:44.109Z,5.37
2023-04-21T17:21:12.574Z,6.80
2023-04-21T17:23:40.896Z,6.65
2023-04-21T17:26:12.267Z,3.90
2023-04-21T17:28:40.976Z,5.75
2023-04-21T17:31:15.783Z,4.25
2023-04-21T17:33:52.490Z,4.35
2023-04-21T17:36:20.798Z,5.20
2023-04-21T17:38:48.850Z,4.05
2023-04-21T17:41:16.842Z,3.65
2023-04-21T17:43:45.017Z,1.90
2023-04-21T17:46:14.490Z,4.05
2023-04-21T17:48:42.623Z,4.62
2023-04-21T17:51:11.764Z,3.85
2023-04-21T17:53:39.744Z,5.00
2023-04-21T17:56:08.173Z,4.43
2023-04-21T17:58:36.585Z,4.12
2023-04-21T18:01:04.703Z,2.92
2023-04-21T18:03:36.159Z,4.45
2023-04-21T18:06:04.826Z,3.70
2023-04-21T18:08:33.096Z,4.25
2023-04-21T18:11:01.157Z,3.28
2023-04-21T18:13:29.158Z,3.53
2023-04-21T18:15:57.776Z,3.33
2023-04-21T18:18:27.106Z,2.47
2023-04-21T18:20:56.830Z,3.97
2023-04-21T18:23:25.104Z,3.33
2023-04-21T18:25:53.808Z,5.05
2023-04-21T18:28:22.291Z,3.95
2023-04-21T18:30:51.292Z,8.13
2023-04-21T18:33:23.263Z,5.20
2023-04-21T18:35:52.974Z,5.70
2023-04-21T18:38:23.370Z,4.80
2023-04-21T18:40:54.161Z,5.70
2023-04-21T18:43:22.277Z,3.05
2023-04-21T18:45:50.422Z,3.95
2023-04-21T18:48:18.828Z,4.28
2023-04-21T18:50:46.930Z,4.05
2023-04-21T18:53:15.104Z,7.18
2023-04-21T18:55:45.645Z,5.55
2023-04-21T18:58:13.831Z,6.78
2023-04-21T19:00:42.173Z,6.72
2023-04-21T19:03:11.564Z,5.30
2023-04-21T19:05:40.693Z,3.30
2023-04-21T19:08:10.196Z,4.10
2023-04-21T19:10:39.064Z,5.60
2023-04-21T19:13:08.374Z,5.45
2023-04-21T19:15:36.687Z,5.07
2023-04-21T19:18:05.344Z,5.25
2023-04-21T19:20:35.603Z,5.22
2023-04-21T19:23:03.816Z,4.75
2023-04-21T19:25:32.180Z,3.30
2023-04-21T19:28:01.196Z,10.43
2023-04-21T19:30:30.607Z,8.63
2023-04-21T19:32:59.121Z,4.03
2023-04-21T19:35:28.106Z,7.35
2023-04-21T19:37:56.414Z,3.42
2023-04-21T19:40:24.759Z,4.00
2023-04-21T19:42:52.761Z,6.12
2023-04-21T19:45:20.851Z,5.28
2023-04-21T19:47:50.796Z,4.65
2023-04-21T19:50:19.247Z,6.03
2023-04-21T19:52:47.472Z,4.03
2023-04-21T19:55:16.278Z,6.87
2023-04-21T19:57:44.362Z,7.07
2023-04-21T20:00:14.091Z,3.83
2023-04-21T20:02:43.078Z,5.85
2023-04-21T20:05:12.920Z,3.75
2023-04-21T20:07:40.980Z,2.85
2023-04-21T20:10:10.590Z,5.68
2023-04-21T20:12:38.771Z,5.05
2023-04-21T20:15:08.193Z,6.62
2023-04-21T20:17:36.956Z,5.60
2023-04-21T20:20:06.468Z,4.70
2023-04-21T20:22:36.112Z,4.28
2023-04-21T20:25:04.875Z,4.55
2023-04-21T20:27:33.035Z,3.55
2023-04-21T20:30:01.430Z,4.95
2023-04-21T20:32:30.380Z,7.05
2023-04-21T20:34:59.637Z,8.52
2023-04-21T20:37:27.810Z,4.20
2023-04-21T20:40:01.558Z,3.50
2023-04-21T20:42:29.964Z,3.47
2023-04-21T20:45:02.089Z,5.40
2023-04-21T20:47:30.492Z,3.20
2023-04-21T20:49:59.229Z,4.55
2023-04-21T20:52:27.355Z,6.85
2023-04-21T20:54:56.871Z,3.95
2023-04-21T20:57:27.285Z,5.95
2023-04-21T20:59:55.568Z,5.62
2023-04-21T21:02:23.733Z,4.90
2023-04-21T21:04:52.202Z,5.32
2023-04-21T21:07:20.199Z,4.70
2023-04-21T21:09:48.301Z,5.43
2023-04-21T21:12:18.098Z,6.22
2023-04-21T21:14:46.319Z,6.07
2023-04-21T21:17:16.599Z,4.72
2023-04-21T21:19:44.987Z,4.97
2023-04-21T21:22:13.096Z,5.03
2023-04-21T21:24:41.246Z,4.80
2023-04-21T21:27:09.642Z,5.85
2023-04-21T21:29:39.199Z,4.68
2023-04-21T21:32:07.571Z,4.43
2023-04-21T21:34:35.908Z,4.28
2023-04-21T21:37:04.420Z,5.85
2023-04-21T21:39:32.417Z,4.25
2023-04-21T21:42:00.806Z,6.07
2023-04-21T21:44:28.984Z,5.43
2023-04-21T21:46:58.508Z,4.65
2023-04-21T21:49:26.820Z,4.53
2023-04-21T21:51:54.933Z,5.30
2023-04-21T21:54:23.067Z,5.82
2023-04-21T21:56:51.471Z,8.82
2023-04-21T21:59:19.545Z,5.72
2023-04-21T22:01:47.840Z,5.18
2023-04-21T22:04:17.707Z,5.30
2023-04-21T22:06:46.345Z,6.12
2023-04-21T22:09:14.382Z,4.78
2023-04-21T22:11:42.675Z,7.70
2023-04-21T22:14:22.029Z,5.40
2023-04-21T22:16:53.070Z,5.40
2023-04-21T22:19:22.865Z,5.55
2023-04-21T22:21:50.948Z,7.12
2023-04-21T22:24:19.452Z,7.53
2023-04-21T22:26:47.911Z,7.53
2023-04-21T22:29:16.018Z,5.78
2023-04-21T22:31:44.781Z,5.62
2023-04-21T22:34:15.077Z,7.43
2023-04-21T22:36:44.562Z,5.65
2023-04-21T22:39:13.032Z,6.05
2023-04-21T22:41:41.123Z,6.30
2023-04-21T22:44:09.151Z,5.15
2023-04-21T22:46:37.912Z,4.72
2023-04-21T22:49:05.979Z,6.62
2023-04-21T22:51:34.370Z,6.53
2023-04-21T22:54:04.336Z,6.85
2023-04-21T22:56:34.867Z,6.37
2023-04-21T22:59:03.357Z,5.55
2023-04-21T23:01:32.179Z,7.18
2023-04-21T23:04:00.697Z,6.00
2023-04-21T23:06:29.448Z,7.22
2023-04-21T23:08:57.529Z,6.68
2023-04-21T23:11:26.929Z,7.50
2023-04-21T23:13:55.335Z,9.30
2023-04-21T23:16:23.763Z,7.35
2023-04-21T23:18:51.813Z,5.00
2023-04-21T23:21:20.293Z,8.13
2023-04-21T23:23:48.329Z,6.68
2023-04-21T23:26:16.487Z,8.25
2023-04-21T23:28:46.213Z,8.90
2023-04-21T23:31:14.518Z,8.38
2023-04-21T23:33:42.782Z,6.00
2023-04-21T23:36:11.277Z,11.65
2023-04-21T23:38:39.554Z,6.80
2023-04-21T23:41:07.796Z,7.85
2023-04-21T23:43:37.250Z,8.32
2023-04-21T23:46:06.789Z,6.93
2023-04-21T23:48:35.207Z,10.25
2023-04-21T23:51:03.698Z,5.12
2023-04-21T23:53:31.828Z,6.22
2023-04-21T23:55:59.984Z,5.80
2023-04-21T23:58:28.499Z,11.27
